Time;durP1;ratioP1;P1;durP2;ratioP2;P2;SDS_P1;SDS_P2;PMS_P1;PMS_P2;Temp;Humidity;BMP_temperature;BMP_pressure;BME280_temperature;BME280_humidity;BME280_pressure;Samples;Min_cycle;Max_cycle;Signal;HPM_P1;HPM_P2
2022/04/10 00:00:57;;;;;;;;;;;4.40;99.90;;;;;;4180730;28;20036;-93
2022/04/10 00:02:59;;;;;;;2.42;2.42;;;4.40;99.90;;;;;;4214334;28;19926;-93
2022/04/10 00:05:04;;;;;;;2.90;2.90;;;4.30;99.90;;;;;;4179142;28;20076;-93
2022/04/10 00:07:07;;;;;;;2.17;2.17;;;4.30;99.90;;;;;;4198281;28;20082;-93
2022/04/10 00:09:13;;;;;;;1.90;1.90;;;4.30;99.90;;;;;;4199260;28;20055;-93
2022/04/10 00:11:16;;;;;;;2.28;2.28;;;4.30;99.90;;;;;;4169074;28;20529;-92
2022/04/10 00:13:18;;;;;;;2.20;2.20;;;4.40;99.90;;;;;;4181705;28;20041;-92
2022/04/10 00:15:20;;;;;;;2.20;2.20;;;4.60;99.90;;;;;;4198033;28;20036;-93
2022/04/10 00:17:23;;;;;;;2.33;2.33;;;4.60;99.90;;;;;;4178370;28;20559;-92
2022/04/10 00:19:25;;;;;;;1.90;1.90;;;4.70;99.90;;;;;;4179980;28;20037;-93
2022/04/10 00:21:28;;;;;;;2.13;2.13;;;4.70;99.90;;;;;;4195369;28;20043;-93
2022/04/10 00:23:31;;;;;;;2.30;2.30;;;4.70;99.90;;;;;;4196155;28;20044;-93
2022/04/10 00:25:33;;;;;;;;;;;4.70;99.90;;;;;;4181641;28;20040;-94
2022/04/10 00:27:35;;;;;;;2.05;2.05;;;4.80;99.90;;;;;;4191268;28;19934;-93
2022/04/10 00:29:38;;;;;;;2.00;2.00;;;4.90;99.90;;;;;;4188149;28;20041;-93
2022/04/10 00:31:41;;;;;;;2.33;2.30;;;5.00;99.90;;;;;;4187410;28;20133;-93
2022/04/10 00:33:44;;;;;;;1.88;1.85;;;5.10;99.90;;;;;;4210534;28;20161;-94
2022/04/10 00:35:46;;;;;;;2.25;2.25;;;5.10;99.90;;;;;;4197457;28;20503;-93
2022/04/10 00:37:50;;;;;;;2.30;2.20;;;5.20;99.90;;;;;;4196535;28;20048;-94
2022/04/10 00:39:52;;;;;;;1.83;1.75;;;5.20;99.90;;;;;;4179908;28;20455;-92
2022/04/10 00:41:55;;;;;;;2.00;2.00;;;5.30;99.90;;;;;;4174352;28;20080;-93
2022/04/10 00:44:04;;;;;;;1.80;1.80;;;5.30;99.90;;;;;;4176989;28;20063;-93
2022/04/10 00:46:07;;;;;;;1.85;1.75;;;5.30;99.90;;;;;;4181059;28;20071;-94
2022/04/10 00:48:10;;;;;;;;;;;5.30;99.90;;;;;;4194405;28;20040;-94
2022/04/10 00:50:15;;;;;;;1.80;1.80;;;5.30;99.90;;;;;;4179358;28;19974;-92
2022/04/10 00:52:19;;;;;;;1.80;1.80;;;5.20;99.90;;;;;;4180799;28;20079;-93
2022/04/10 00:54:27;;;;;;;1.67;1.67;;;5.10;99.90;;;;;;4197580;28;20028;-93
2022/04/10 00:56:31;;;;;;;1.77;1.77;;;5.00;99.90;;;;;;4196257;28;20048;-93
2022/04/10 00:58:34;;;;;;;1.85;1.85;;;4.90;99.90;;;;;;4182302;28;20045;-94
2022/04/10 01:00:37;;;;;;;2.10;2.10;;;4.90;99.90;;;;;;4183172;28;20067;-87
2022/04/10 01:02:40;;;;;;;1.92;1.83;;;5.00;99.90;;;;;;4196380;28;20151;-87
2022/04/10 01:04:43;;;;;;;2.33;2.33;;;4.90;99.90;;;;;;4209499;28;20040;-88
2022/04/10 01:06:50;;;;;;;2.08;1.98;;;4.90;99.90;;;;;;4187273;28;20068;-87
2022/04/10 01:08:53;;;;;;;2.97;2.88;;;5.00;99.90;;;;;;4211195;28;20036;-88
2022/04/10 01:10:56;;;;;;;2.03;2.00;;;4.90;99.90;;;;;;4191833;28;20507;-87
2022/04/10 01:13:00;;;;;;;1.83;1.70;;;4.90;99.90;;;;;;4165870;28;20084;-87
2022/04/10 01:15:04;;;;;;;2.00;1.90;;;4.90;99.90;;;;;;4196798;28;20040;-87
2022/04/10 01:17:09;;;;;;;2.03;2.03;;;5.10;99.90;;;;;;4194469;28;20040;-87
2022/04/10 01:19:13;;;;;;;2.38;2.38;;;5.20;99.90;;;;;;4162082;28;20041;-88
2022/04/10 01:21:27;;;;;;;2.00;2.00;;;5.10;99.90;;;;;;4177661;28;20443;-87
2022/04/10 01:23:31;;;;;;;2.55;2.45;;;5.00;99.90;;;;;;4194740;28;20093;-87
2022/04/10 01:25:34;;;;;;;2.38;2.38;;;4.90;99.90;;;;;;4182107;28;20056;-89
2022/04/10 01:27:40;;;;;;;2.63;2.63;;;4.90;99.90;;;;;;4212373;28;20465;-87
2022/04/10 01:29:43;;;;;;;2.03;2.03;;;4.80;99.90;;;;;;4179766;28;20124;-87
2022/04/10 01:31:47;;;;;;;3.15;3.15;;;4.80;99.90;;;;;;4196210;28;20048;-87
2022/04/10 01:33:50;;;;;;;2.75;2.75;;;4.70;99.90;;;;;;4201402;28;20040;-87
2022/04/10 01:35:53;;;;;;;2.25;2.25;;;4.70;99.90;;;;;;4183310;28;20569;-88
2022/04/10 01:37:57;;;;;;;1.95;1.95;;;4.70;99.90;;;;;;4179560;28;20040;-87
2022/04/10 01:39:59;;;;;;;1.75;1.75;;;4.80;99.90;;;;;;4195215;28;20102;-86
2022/04/10 01:42:02;;;;;;;1.77;1.77;;;4.70;99.90;;;;;;4178895;28;20045;-87
2022/04/10 01:44:06;;;;;;;2.20;2.20;;;4.70;99.90;;;;;;4179233;28;20045;-87
2022/04/10 01:46:08;;;;;;;2.33;2.22;;;5.00;99.90;;;;;;4193910;28;20070;-87
2022/04/10 01:48:10;;;;;;;2.00;2.00;;;5.00;99.90;;;;;;4194523;28;20048;-87
2022/04/10 01:50:13;;;;;;;2.10;2.10;;;4.90;99.90;;;;;;4188269;28;20041;-88
2022/04/10 01:52:38;;;;;;;2.38;2.38;;;5.00;99.90;;;;;;4196513;28;20033;-87
2022/04/10 01:54:41;;;;;;;2.00;2.00;;;5.00;99.90;;;;;;4113345;28;20063;-88
2022/04/10 01:56:43;;;;;;;2.45;2.45;;;4.90;99.90;;;;;;4113229;28;20558;-86
2022/04/10 01:58:48;;;;;;;2.33;2.33;;;4.80;99.90;;;;;;4096344;28;20043;-88
2022/04/10 02:00:51;;;;;;;2.28;2.28;;;4.70;99.90;;;;;;4097052;28;20043;-88
2022/04/10 02:02:54;;;;;;;2.50;2.40;;;5.20;99.90;;;;;;4112167;28;20095;-86
2022/04/10 02:04:57;;;;;;;2.30;2.30;;;5.30;99.90;;;;;;4133733;28;20497;-87
2022/04/10 02:07:01;;;;;;;3.00;3.00;;;5.20;99.90;;;;;;4115352;28;20042;-88
2022/04/10 02:09:10;;;;;;;2.80;2.60;;;5.00;99.90;;;;;;4097210;28;20074;-87
2022/04/10 02:11:18;;;;;;;2.40;2.40;;;4.80;99.90;;;;;;4134392;28;20113;-87
2022/04/10 02:13:20;;;;;;;2.88;2.88;;;4.70;99.90;;;;;;4113037;28;20675;-87
2022/04/10 02:15:29;;;;;;;3.85;3.05;;;4.70;99.90;;;;;;4095784;29;20078;-87
2022/04/10 02:17:33;;;;;;;2.42;2.08;;;4.50;99.90;;;;;;4128417;28;20471;-87
2022/04/10 02:19:35;;;;;;;2.80;2.70;;;4.50;99.90;;;;;;4097057;28;20051;-87
2022/04/10 02:21:38;;;;;;;2.40;2.40;;;4.60;99.90;;;;;;4097339;28;20106;-88
2022/04/10 02:23:41;;;;;;;2.70;2.70;;;4.60;99.90;;;;;;4111350;28;20035;-87
2022/04/10 02:25:43;;;;;;;2.08;2.08;;;4.60;99.90;;;;;;4112322;28;20057;-87
2022/04/10 02:27:46;;;;;;;2.53;2.53;;;4.60;99.90;;;;;;4128789;28;20054;-88
2022/04/10 02:29:48;;;;;;;2.35;2.35;;;4.60;99.90;;;;;;4128968;28;20105;-87
2022/04/10 02:31:52;;;;;;;2.42;2.42;;;4.40;99.90;;;;;;4126111;28;20042;-88
2022/04/10 02:33:55;;;;;;;2.72;2.72;;;4.30;99.90;;;;;;4179930;28;20502;-87
2022/04/10 02:36:01;;;;;;;2.70;2.70;;;4.40;99.90;;;;;;4170814;28;20045;-87
2022/04/10 02:38:04;;;;;;;2.90;2.90;;;4.30;99.90;;;;;;4160877;28;20132;-88
2022/04/10 02:40:07;;;;;;;2.75;2.58;;;4.40;99.90;;;;;;4188742;28;20032;-87
2022/04/10 02:42:10;;;;;;;2.40;2.40;;;4.50;99.90;;;;;;4162357;28;20040;-87
2022/04/10 02:44:13;;;;;;;2.53;2.53;;;4.50;99.90;;;;;;4177385;28;20033;-88
2022/04/10 02:46:16;;;;;;;2.90;2.90;;;4.80;99.90;;;;;;4178954;28;20036;-87
2022/04/10 02:48:19;;;;;;;3.38;3.38;;;4.90;99.90;;;;;;4178649;28;20037;-86
2022/04/10 02:50:22;;;;;;;2.67;2.67;;;4.70;99.90;;;;;;4178372;28;20452;-88
2022/04/10 02:52:26;;;;;;;2.22;2.22;;;4.60;99.90;;;;;;4176859;28;20045;-87
2022/04/10 02:54:31;;;;;;;2.08;2.08;;;5.00;99.90;;;;;;4195685;28;20518;-89
2022/04/10 02:56:34;;;;;;;2.30;2.20;;;5.20;99.90;;;;;;4162504;28;20046;-88
2022/04/10 02:58:37;;;;;;;1.95;1.95;;;5.10;99.90;;;;;;4176083;28;20509;-88
2022/04/10 03:00:39;;;;;;;2.28;2.28;;;5.00;99.90;;;;;;4162087;28;20536;-88
2022/04/10 03:02:41;;;;;;;2.90;2.70;;;5.00;99.90;;;;;;4177145;28;20069;-88
2022/04/10 03:04:45;;;;;;;;;;;5.00;99.90;;;;;;4162476;28;20482;-87
2022/04/10 03:06:47;;;;;;;2.20;2.20;;;4.90;99.90;;;;;;4178765;28;19924;-88
2022/04/10 03:08:49;;;;;;;2.40;2.25;;;5.00;99.90;;;;;;4170783;28;20037;-89
2022/04/10 03:10:52;;;;;;;2.53;2.42;;;4.90;99.90;;;;;;4172820;28;20048;-87
2022/04/10 03:12:55;;;;;;;2.50;2.50;;;4.90;99.90;;;;;;4191702;28;20048;-88
2022/04/10 03:15:00;;;;;;;2.28;2.28;;;4.80;99.90;;;;;;4180233;28;20053;-88
2022/04/10 03:17:04;;;;;;;1.85;1.85;;;4.70;99.90;;;;;;4167828;28;20526;-88
2022/04/10 03:19:06;;;;;;;2.00;2.00;;;4.70;99.90;;;;;;4190396;28;20043;-87
2022/04/10 03:21:09;;;;;;;2.25;2.25;;;4.50;99.90;;;;;;4147321;28;20042;-90
2022/04/10 03:23:11;;;;;;;2.63;2.53;;;4.30;99.90;;;;;;4195656;28;20078;-88
2022/04/10 03:25:14;;;;;;;2.92;2.92;;;4.10;99.90;;;;;;4198078;28;20040;-87
2022/04/10 03:27:16;;;;;;;2.28;2.28;;;4.00;99.90;;;;;;4188748;28;20427;-87
2022/04/10 03:29:18;;;;;;;2.38;2.38;;;4.20;99.90;;;;;;4204219;28;20041;-87
2022/04/10 03:31:23;;;;;;;2.80;2.75;;;4.20;99.90;;;;;;4188404;28;20126;-89
2022/04/10 03:33:25;;;;;;;2.25;2.25;;;4.20;99.90;;;;;;4211986;28;20040;-88
2022/04/10 03:35:28;;;;;;;2.85;2.85;;;4.10;99.90;;;;;;4198163;28;20102;-87
2022/04/10 03:37:30;;;;;;;2.50;2.50;;;4.10;99.90;;;;;;4197968;28;20040;-87
2022/04/10 03:39:32;;;;;;;2.25;2.15;;;3.90;99.90;;;;;;4179803;28;20045;-88
2022/04/10 03:41:36;;;;;;;2.88;2.85;;;3.90;99.90;;;;;;4164074;28;20050;-87
2022/04/10 03:43:39;;;;;;;2.70;2.50;;;3.90;99.90;;;;;;4181293;28;20034;-87
2022/04/10 03:45:41;;;;;;;2.40;2.30;;;3.90;99.90;;;;;;4205400;28;20032;-87
2022/04/10 03:47:43;;;;;;;1.90;1.90;;;3.90;99.90;;;;;;4213100;28;20036;-87
2022/04/10 03:49:51;;;;;;;2.40;2.30;;;3.80;99.90;;;;;;4194355;28;20060;-87
2022/04/10 03:51:54;;;;;;;2.58;2.58;;;3.80;99.90;;;;;;4197877;28;20044;-87
2022/04/10 03:53:56;;;;;;;3.08;2.97;;;3.70;99.90;;;;;;4188298;28;20049;-87
2022/04/10 03:55:58;;;;;;;2.95;2.95;;;3.70;99.90;;;;;;4181039;28;20049;-87
2022/04/10 03:58:00;;;;;;;4.43;3.70;;;3.70;99.90;;;;;;4196427;28;20094;-89
2022/04/10 04:00:03;;;;;;;2.72;2.72;;;3.70;99.90;;;;;;4163483;28;20057;-88
2022/04/10 04:02:05;;;;;;;;;;;3.80;99.90;;;;;;4197832;28;20036;-87
2022/04/10 04:04:08;;;;;;;2.42;2.22;;;3.90;99.90;;;;;;4211835;28;19920;-88
2022/04/10 04:06:10;;;;;;;3.08;3.08;;;3.70;99.90;;;;;;4197407;28;20612;-87
2022/04/10 04:08:15;;;;;;;2.83;2.83;;;3.70;99.90;;;;;;4172537;28;20037;-87
2022/04/10 04:10:17;;;;;;;2.35;2.35;;;3.60;99.90;;;;;;4202903;28;20040;-87
2022/04/10 04:12:19;;;;;;;2.08;2.08;;;3.80;99.90;;;;;;4185811;28;20049;-87
2022/04/10 04:14:21;;;;;;;2.60;2.60;;;3.70;99.90;;;;;;4197291;28;20040;-88
2022/04/10 04:16:24;;;;;;;2.58;2.47;;;3.50;99.90;;;;;;4196666;28;20041;-86
2022/04/10 04:18:27;;;;;;;2.17;2.17;;;3.40;99.90;;;;;;4175307;28;20046;-88
2022/04/10 04:20:29;;;;;;;2.90;2.80;;;3.30;99.90;;;;;;4196082;28;20561;-88
2022/04/10 04:22:33;;;;;;;2.58;2.58;;;3.20;99.90;;;;;;4179820;28;20059;-88
2022/04/10 04:24:36;;;;;;;2.78;2.67;;;3.20;99.90;;;;;;4177997;28;20570;-88
2022/04/10 04:26:38;;;;;;;3.00;3.00;;;3.10;99.90;;;;;;4187979;28;20044;-89
2022/04/10 04:28:40;;;;;;;2.75;2.75;;;3.20;99.90;;;;;;4194186;28;20040;-87
2022/04/10 04:30:43;;;;;;;3.30;3.30;;;3.20;99.90;;;;;;4195760;28;20052;-87
2022/04/10 04:32:45;;;;;;;2.50;2.50;;;3.20;99.90;;;;;;4166798;28;20445;-87
2022/04/10 04:34:47;;;;;;;3.03;3.00;;;3.10;99.90;;;;;;4196269;28;20051;-88
2022/04/10 04:37:22;;;;;;;2.17;2.17;;;3.00;99.90;;;;;;4182139;28;20037;-86
2022/04/10 04:39:26;;;;;;;2.97;2.88;;;3.00;99.90;;;;;;4131771;28;20051;-87
2022/04/10 04:42:04;;;;;;;2.88;2.88;;;2.90;99.90;;;;;;4131669;28;20042;-86
2022/04/10 04:44:33;;;;;;;2.65;2.45;;;2.80;99.90;;;;;;4073274;29;20036;-88
2022/04/10 04:47:04;;;;;;;2.67;2.67;;;2.80;99.90;;;;;;4067646;29;20052;-87
2022/04/10 04:49:19;;;;;;;3.10;3.08;;;2.80;99.90;;;;;;4187120;28;20411;-44
2022/04/10 04:51:22;;;;;;;2.78;2.78;;;2.80;99.90;;;;;;4180645;28;20045;-45
2022/04/10 04:53:24;;;;;;;5.55;3.20;;;2.80;99.90;;;;;;4177770;28;20033;-44
2022/04/10 04:55:26;;;;;;;2.90;2.70;;;2.90;99.90;;;;;;4175801;28;20065;-45
2022/04/10 04:57:28;;;;;;;2.53;2.50;;;2.90;99.90;;;;;;4175999;28;20045;-44
2022/04/10 04:59:30;;;;;;;4.35;4.25;;;2.90;99.90;;;;;;4176965;28;20091;-44
2022/04/10 05:01:32;;;;;;;3.92;3.83;;;2.80;99.90;;;;;;4177283;28;20034;-44
2022/04/10 05:03:34;;;;;;;5.05;4.80;;;2.70;99.90;;;;;;4176997;28;20455;-45
2022/04/10 05:05:36;;;;;;;4.07;3.92;;;2.70;99.90;;;;;;4176999;28;20402;-43
2022/04/10 05:07:38;;;;;;;4.97;4.70;;;2.50;99.90;;;;;;4177274;28;20065;-44
2022/04/10 05:09:40;;;;;;;3.13;3.03;;;2.50;99.90;;;;;;4179337;28;20037;-43
2022/04/10 05:11:42;;;;;;;4.63;4.47;;;2.40;99.90;;;;;;4181888;28;20047;-44
2022/04/10 05:13:44;;;;;;;4.65;4.45;;;2.40;99.90;;;;;;4175485;28;20041;-45
2022/04/10 05:15:47;;;;;;;4.10;4.10;;;2.30;99.90;;;;;;4176681;28;20099;-45
2022/04/10 05:17:49;;;;;;;3.65;3.65;;;2.40;99.90;;;;;;4182785;28;20045;-45
2022/04/10 05:19:51;;;;;;;3.70;3.67;;;2.40;99.90;;;;;;4190860;28;20075;-44
2022/04/10 05:21:53;;;;;;;3.85;3.85;;;2.40;99.90;;;;;;4185314;28;20041;-44
2022/04/10 05:23:55;;;;;;;3.22;3.13;;;2.30;99.90;;;;;;4185970;28;20042;-44
2022/04/10 05:25:58;;;;;;;3.97;3.88;;;2.20;99.90;;;;;;4176933;28;20075;-44
2022/04/10 05:28:00;;;;;;;4.07;3.90;;;2.10;99.90;;;;;;4176711;28;20045;-44
2022/04/10 05:30:03;;;;;;;3.60;3.60;;;2.10;99.90;;;;;;4176107;28;20045;-45
2022/04/10 05:32:05;;;;;;;4.13;4.13;;;2.10;99.90;;;;;;4175595;28;20061;-44
2022/04/10 05:34:07;;;;;;;4.57;4.57;;;2.20;99.90;;;;;;4176660;28;20098;-43
2022/04/10 05:36:09;;;;;;;4.50;4.25;;;2.20;99.90;;;;;;4176507;28;20068;-44
2022/04/10 05:38:11;;;;;;;5.28;5.07;;;2.20;99.90;;;;;;4176460;28;20069;-44
2022/04/10 05:40:13;;;;;;;5.38;5.22;;;2.10;99.90;;;;;;4176521;28;20072;-44
2022/04/10 05:42:16;;;;;;;5.15;4.95;;;2.10;99.90;;;;;;4181514;28;20563;-44
2022/04/10 05:44:18;;;;;;;4.57;4.20;;;2.10;99.90;;;;;;4182184;28;20076;-44
2022/04/10 05:46:20;;;;;;;4.60;4.40;;;2.20;99.90;;;;;;4175092;28;20268;-44
2022/04/10 05:48:22;;;;;;;3.80;3.70;;;2.20;99.90;;;;;;4174715;28;20520;-45
2022/04/10 05:50:24;;;;;;;3.65;3.63;;;2.20;99.90;;;;;;4183489;28;20033;-44
2022/04/10 05:52:26;;;;;;;3.65;3.65;;;2.40;99.90;;;;;;4176705;28;20528;-43
2022/04/10 05:54:29;;;;;;;3.97;3.88;;;2.50;99.90;;;;;;4174836;28;20065;-44
2022/04/10 05:56:31;;;;;;;3.72;3.15;;;2.60;99.90;;;;;;4175245;28;20042;-44
2022/04/10 05:58:33;;;;;;;3.00;3.00;;;2.70;99.90;;;;;;4174712;28;20110;-44
2022/04/10 06:00:35;;;;;;;2.65;2.55;;;2.80;99.90;;;;;;4164552;28;20049;-44
2022/04/10 06:02:39;;;;;;;4.35;4.25;;;3.00;99.90;;;;;;4164182;28;20046;-44
2022/04/10 06:04:41;;;;;;;4.53;4.25;;;3.20;99.90;;;;;;4164097;28;20045;-44
2022/04/10 06:06:43;;;;;;;3.92;3.83;;;3.30;99.90;;;;;;4162759;28;20651;-44
2022/04/10 06:08:45;;;;;;;3.08;2.97;;;3.30;99.90;;;;;;4177593;28;20060;-45
2022/04/10 06:10:47;;;;;;;3.13;2.97;;;3.30;99.90;;;;;;4165710;28;20053;-46
2022/04/10 06:12:50;;;;;;;3.03;3.03;;;3.40;99.90;;;;;;4166993;28;20401;-44
2022/04/10 06:14:52;;;;;;;3.33;3.22;;;3.50;99.90;;;;;;4163740;28;20100;-44
2022/04/10 06:16:54;;;;;;;3.13;3.05;;;3.60;99.90;;;;;;4163788;28;20042;-44
2022/04/10 06:18:56;;;;;;;2.88;2.88;;;3.60;99.90;;;;;;4172672;28;20497;-44
2022/04/10 06:20:59;;;;;;;3.08;3.08;;;3.80;99.90;;;;;;4163500;28;20322;-45
2022/04/10 06:23:01;;;;;;;2.78;2.78;;;3.80;99.90;;;;;;4163546;28;20553;-44
2022/04/10 06:25:04;;;;;;;3.88;3.67;;;4.00;99.90;;;;;;4163696;28;20493;-44
2022/04/10 06:27:06;;;;;;;;;;;4.00;99.90;;;;;;4164130;28;20041;-44
2022/04/10 06:29:08;;;;;;;3.45;3.38;;;4.00;99.90;;;;;;4163148;28;19959;-45
2022/04/10 06:31:10;;;;;;;3.25;3.25;;;4.10;99.90;;;;;;4163565;28;20038;-46
2022/04/10 06:33:13;;;;;;;5.90;5.47;;;4.40;99.90;;;;;;4163402;28;20080;-44
2022/04/10 06:35:15;;;;;;;5.32;5.22;;;4.30;99.90;;;;;;4163356;28;20456;-44
2022/04/10 06:37:17;;;;;;;3.33;3.22;;;4.30;99.90;;;;;;4163445;28;20034;-44
2022/04/10 06:39:20;;;;;;;5.25;5.10;;;4.50;99.90;;;;;;4163362;28;20053;-45
2022/04/10 06:41:22;;;;;;;4.13;4.03;;;4.70;99.90;;;;;;4161899;28;20111;-44
2022/04/10 06:43:24;;;;;;;2.45;2.45;;;5.00;99.90;;;;;;4166130;28;20048;-45
2022/04/10 06:45:26;;;;;;;3.60;3.60;;;5.10;99.90;;;;;;4163397;28;20046;-45
2022/04/10 06:47:31;;;;;;;3.55;3.30;;;5.10;99.90;;;;;;4162844;28;20052;-44
2022/04/10 06:49:33;;;;;;;3.00;2.88;;;5.30;99.90;;;;;;4166120;28;20127;-44
2022/04/10 06:51:35;;;;;;;2.55;2.40;;;5.30;99.90;;;;;;4166852;28;20025;-44
2022/04/10 06:53:37;;;;;;;2.58;2.58;;;5.40;99.90;;;;;;4162912;28;20052;-45
2022/04/10 06:55:40;;;;;;;2.30;2.20;;;5.50;99.90;;;;;;4163117;28;20541;-44
2022/04/10 06:57:42;;;;;;;;;;;5.60;99.90;;;;;;4163259;28;20110;-44
2022/04/10 06:59:44;;;;;;;3.10;2.90;;;5.70;99.90;;;;;;4171646;28;19952;-46
2022/04/10 07:01:46;;;;;;;2.50;2.40;;;5.80;99.90;;;;;;4163102;28;20288;-45
2022/04/10 07:03:48;;;;;;;2.20;2.20;;;6.00;99.90;;;;;;4162646;28;20103;-45
2022/04/10 07:05:51;;;;;;;3.33;3.13;;;6.30;99.90;;;;;;4165222;28;20048;-44
2022/04/10 07:07:54;;;;;;;2.90;2.80;;;6.70;99.90;;;;;;4170105;28;20045;-44
2022/04/10 07:09:56;;;;;;;1.98;1.98;;;6.80;99.90;;;;;;4168782;28;20489;-45
2022/04/10 07:11:58;;;;;;;2.65;2.55;;;6.90;99.90;;;;;;4170263;28;20065;-44
2022/04/10 07:14:00;;;;;;;3.15;2.97;;;7.00;99.90;;;;;;4171702;28;20037;-44
2022/04/10 07:16:02;;;;;;;2.40;2.17;;;7.10;99.90;;;;;;4163051;28;20033;-44
2022/04/10 07:18:05;;;;;;;2.17;2.08;;;7.00;99.90;;;;;;4170675;28;20033;-45
2022/04/10 07:20:08;;;;;;;2.10;1.98;;;6.90;99.90;;;;;;4164179;28;20048;-45
2022/04/10 07:24:31;;;;;;;2.15;1.88;;;7.30;99.90;;;;;;4162913;28;20034;-44
2022/04/10 07:26:33;;;;;;;3.40;1.88;;;7.50;99.90;;;;;;4162737;28;20485;-44
2022/04/10 07:28:37;;;;;;;1.90;1.80;;;7.70;99.90;;;;;;4162512;28;20033;-45
2022/04/10 07:30:39;;;;;;;1.75;1.75;;;7.90;99.90;;;;;;4162784;28;20448;-44
2022/04/10 07:32:41;;;;;;;2.15;1.60;;;8.00;99.90;;;;;;4162591;28;20046;-45
2022/04/10 07:34:44;;;;;;;1.63;1.52;;;7.80;98.30;;;;;;4170462;28;20564;-44
2022/04/10 07:36:46;;;;;;;1.75;1.65;;;7.90;98.90;;;;;;4177218;28;20496;-44
2022/04/10 07:38:48;;;;;;;1.55;1.45;;;8.00;99.20;;;;;;4164153;28;20559;-45
2022/04/10 07:40:50;;;;;;;1.40;1.40;;;8.10;98.50;;;;;;4164498;28;20049;-44
2022/04/10 07:42:52;;;;;;;1.40;1.40;;;8.30;96.40;;;;;;4165628;28;20049;-45
2022/04/10 07:44:59;;;;;;;1.42;1.42;;;8.10;96.60;;;;;;4165294;28;20581;-44
2022/04/10 07:49:21;;;;;;;1.10;1.10;;;8.40;96.30;;;;;;4166729;28;20448;-45
2022/04/10 07:51:25;;;;;;;1.30;1.30;;;8.60;96.50;;;;;;4168512;28;20279;-45
2022/04/10 07:53:29;;;;;;;1.20;1.20;;;8.60;96.40;;;;;;4161624;28;20671;-45
2022/04/10 07:55:32;;;;;;;1.35;1.35;;;8.80;95.90;;;;;;4162188;28;20065;-46
2022/04/10 07:57:34;;;;;;;1.42;1.20;;;8.70;94.70;;;;;;4165963;28;20041;-44
2022/04/10 07:59:37;;;;;;;1.40;1.30;;;8.70;94.30;;;;;;4172399;28;20095;-45
2022/04/10 08:01:41;;;;;;;1.90;1.80;;;8.60;94.10;;;;;;4164076;28;20044;-45
2022/04/10 08:03:43;;;;;;;1.90;1.90;;;8.70;93.90;;;;;;4161602;28;20037;-45
2022/04/10 08:05:45;;;;;;;1.20;1.20;;;8.80;94.80;;;;;;4161645;28;20128;-45
2022/04/10 08:07:47;;;;;;;1.90;1.80;;;8.80;93.20;;;;;;4162477;28;20107;-44
2022/04/10 08:09:49;;;;;;;1.90;1.80;;;8.80;92.90;;;;;;4162909;28;20107;-45
2022/04/10 08:11:53;;;;;;;;;;;8.80;93.20;;;;;;4178878;28;20571;-45
2022/04/10 08:13:55;;;;;;;1.63;1.50;;;8.80;92.50;;;;;;4168574;28;20400;-45
2022/04/10 08:15:57;;;;;;;1.48;1.48;;;8.80;92.50;;;;;;4161818;28;20041;-44
2022/04/10 08:17:59;;;;;;;1.88;1.88;;;9.00;93.80;;;;;;4169170;28;20045;-45
2022/04/10 08:20:04;;;;;;;1.55;1.30;;;9.00;92.50;;;;;;4166429;28;20037;-46
2022/04/10 08:22:06;;;;;;;1.40;1.30;;;9.00;93.20;;;;;;4161752;28;20037;-45
2022/04/10 08:24:09;;;;;;;1.40;1.40;;;9.10;92.80;;;;;;4161496;28;20751;-46
2022/04/10 08:26:11;;;;;;;1.65;1.65;;;9.20;91.90;;;;;;4165851;28;20033;-45
2022/04/10 08:28:13;;;;;;;1.20;1.20;;;9.30;91.80;;;;;;4176553;28;20051;-45
2022/04/10 08:30:16;;;;;;;1.27;1.27;;;9.40;92.20;;;;;;4164131;28;20045;-44
2022/04/10 08:32:18;;;;;;;1.70;1.60;;;9.60;91.60;;;;;;4173015;28;20068;-45
2022/04/10 08:34:20;;;;;;;1.20;1.20;;;9.90;91.00;;;;;;4162194;28;20112;-45
2022/04/10 08:36:22;;;;;;;1.33;1.33;;;9.90;88.50;;;;;;4162182;28;20045;-45
2022/04/10 08:38:24;;;;;;;1.20;1.20;;;10.00;87.10;;;;;;4161602;28;20145;-44
2022/04/10 08:40:26;;;;;;;1.40;1.40;;;9.80;85.90;;;;;;4161687;28;20048;-45
2022/04/10 08:42:29;;;;;;;1.48;1.48;;;9.70;87.50;;;;;;4163065;28;20037;-45
2022/04/10 08:44:32;;;;;;;1.20;1.20;;;10.10;90.40;;;;;;4162800;28;20041;-46
2022/04/10 08:46:35;;;;;;;1.25;1.15;;;10.60;88.80;;;;;;4165115;28;20068;-46
2022/04/10 08:48:38;;;;;;;1.00;1.00;;;10.90;86.50;;;;;;4160765;28;20433;-45
2022/04/10 08:50:44;;;;;;;2.05;1.20;;;10.80;86.90;;;;;;4177246;28;20045;-45
2022/04/10 08:52:46;;;;;;;1.10;1.10;;;10.60;84.90;;;;;;4176615;28;20045;-45
2022/04/10 08:54:49;;;;;;;4.10;3.30;;;10.80;85.90;;;;;;4166420;28;20555;-46
2022/04/10 08:56:52;;;;;;;3.50;1.30;;;10.70;82.30;;;;;;4161879;28;20095;-45
2022/04/10 08:58:54;;;;;;;4.03;3.92;;;10.60;81.20;;;;;;4161272;28;20099;-45
2022/04/10 09:00:56;;;;;;;2.47;2.28;;;10.70;81.90;;;;;;4161751;28;20589;-45
2022/04/10 09:02:59;;;;;;;4.70;4.55;;;10.70;81.80;;;;;;4161349;28;20160;-45
2022/04/10 09:05:01;;;;;;;4.03;3.92;;;10.90;82.50;;;;;;4161500;28;20065;-46
2022/04/10 09:07:08;;;;;;;5.38;4.93;;;11.00;81.50;;;;;;4161717;28;20045;-46
2022/04/10 09:09:16;;;;;;;19.48;7.60;;;10.90;81.90;;;;;;4161089;28;20581;-46
2022/04/10 09:11:29;;;;;;;6.13;5.60;;;11.00;79.30;;;;;;4165192;28;20033;-45
2022/04/10 09:13:47;;;;;;;4.18;4.07;;;11.20;81.30;;;;;;4162402;28;20033;-45
2022/04/10 09:15:49;;;;;;;4.40;4.05;;;11.30;80.80;;;;;;4161373;28;20132;-45
2022/04/10 09:17:54;;;;;;;4.10;3.92;;;11.20;78.90;;;;;;4167890;28;20064;-46
2022/04/10 09:19:58;;;;;;;1.58;1.58;;;11.30;77.80;;;;;;4166507;28;20444;-45
2022/04/10 09:22:27;;;;;;;33.17;10.90;;;11.50;77.10;;;;;;4161041;28;20069;-45
2022/04/10 09:24:30;;;;;;;1.52;1.00;;;11.70;78.00;;;;;;4171615;28;20120;-45
2022/04/10 09:26:50;;;;;;;1.10;1.10;;;11.40;76.50;;;;;;4163249;28;20049;-46
2022/04/10 09:28:53;;;;;;;1.20;1.20;;;11.40;71.60;;;;;;4164269;28;20046;-46
2022/04/10 09:30:55;;;;;;;1.20;1.10;;;11.60;76.20;;;;;;4161378;28;20104;-45
2022/04/10 09:32:58;;;;;;;1.20;1.10;;;12.00;78.80;;;;;;4165444;28;20088;-46
2022/04/10 09:35:00;;;;;;;1.10;1.10;;;12.00;74.30;;;;;;4166780;28;20069;-45
2022/04/10 09:37:06;;;;;;;1.30;1.30;;;11.80;71.80;;;;;;4169512;28;20048;-45
2022/04/10 09:39:16;;;;;;;1.10;1.10;;;11.90;73.70;;;;;;4171987;28;20049;-46
2022/04/10 09:41:20;;;;;;;1.00;1.00;;;12.20;75.00;;;;;;4175840;28;20048;-46
2022/04/10 09:43:22;;;;;;;1.27;1.27;;;12.10;72.10;;;;;;4172249;28;20041;-45
2022/04/10 09:45:28;;;;;;;1.10;1.10;;;12.00;73.00;;;;;;4169102;28;20041;-46
2022/04/10 09:47:32;;;;;;;1.15;1.10;;;12.40;74.10;;;;;;4163781;28;20497;-46
2022/04/10 09:49:36;;;;;;;1.20;1.10;;;12.60;71.90;;;;;;4164723;28;20559;-46
2022/04/10 09:52:00;;;;;;;1.05;1.05;;;12.60;72.50;;;;;;4170984;28;20095;-45
2022/04/10 09:54:05;;;;;;;1.00;1.00;;;12.60;71.60;;;;;;4166137;28;20045;-45
2022/04/10 09:56:07;;;;;;;1.20;1.10;;;12.80;70.60;;;;;;4167352;28;20183;-46
2022/04/10 09:58:13;;;;;;;1.10;1.10;;;12.60;68.50;;;;;;4173516;28;20048;-46
2022/04/10 10:00:16;;;;;;;1.42;1.33;;;12.60;68.90;;;;;;4170066;28;20037;-46
2022/04/10 10:02:20;;;;;;;2.08;1.58;;;12.40;68.60;;;;;;4170445;28;20075;-45
2022/04/10 10:04:23;;;;;;;1.35;1.35;;;12.30;70.50;;;;;;4174710;28;20160;-45
2022/04/10 10:06:25;;;;;;;;;;;12.50;69.90;;;;;;4164518;28;20045;-45
2022/04/10 10:08:28;;;;;;;3.45;3.45;;;12.50;68.80;;;;;;4165457;28;19929;-48
2022/04/10 10:10:31;;;;;;;;;;;12.50;66.50;;;;;;4163731;28;20783;-47
2022/04/10 10:12:34;;;;;;;1.00;1.00;;;12.60;67.50;;;;;;4176960;28;20011;-46
2022/04/10 10:14:37;;;;;;;1.20;1.20;;;12.60;69.90;;;;;;4174001;28;20073;-48
2022/04/10 10:16:41;;;;;;;1.30;1.20;;;13.00;72.90;;;;;;4171346;28;20042;-45
2022/04/10 10:18:44;;;;;;;1.05;1.05;;;13.20;72.10;;;;;;4165386;28;20448;-46
2022/04/10 10:20:47;;;;;;;1.10;1.10;;;12.90;67.50;;;;;;4162779;28;20069;-46
2022/04/10 10:22:50;;;;;;;1.25;1.10;;;13.10;76.10;;;;;;4171199;28;20076;-45
2022/04/10 10:24:56;;;;;;;1.00;1.00;;;13.70;70.50;;;;;;4162867;28;20428;-46
2022/04/10 10:27:37;;;;;;;0.90;0.90;;;13.50;67.30;;;;;;4165173;28;20052;-46
2022/04/10 10:30:18;;;;;;;0.93;0.93;;;13.60;66.30;;;;;;4163266;28;20073;-45
2022/04/10 10:32:43;;;;;;;1.00;1.00;;;13.30;61.80;;;;;;4169920;28;20061;-46
2022/04/10 10:34:50;;;;;;;1.00;1.00;;;13.30;64.40;;;;;;4170249;28;20095;-45
2022/04/10 10:36:54;;;;;;;0.90;0.90;;;13.30;65.70;;;;;;4170517;28;20149;-46
2022/04/10 10:38:57;;;;;;;1.30;1.30;;;13.70;61.50;;;;;;4163978;28;20456;-46
2022/04/10 10:41:18;;;;;;;1.17;1.17;;;14.10;62.50;;;;;;4164250;28;20049;-43
2022/04/10 10:43:23;;;;;;;1.95;1.00;;;13.70;57.30;;;;;;4165407;28;20048;-43
2022/04/10 10:45:35;;;;;;;1.00;1.00;;;13.70;61.70;;;;;;4176546;28;20037;-42
2022/04/10 10:47:39;;;;;;;0.93;0.93;;;13.70;56.90;;;;;;4165136;28;20111;-43
2022/04/10 10:49:50;;;;;;;0.90;0.90;;;13.80;58.20;;;;;;4163628;28;20285;-43
2022/04/10 10:51:54;;;;;;;1.42;1.00;;;13.90;60.80;;;;;;4163253;28;20460;-44
2022/04/10 10:53:58;;;;;;;1.00;1.00;;;13.60;60.30;;;;;;4171337;28;20041;-43
2022/04/10 10:56:00;;;;;;;0.90;0.90;;;14.00;63.00;;;;;;4164929;28;20042;-42
2022/04/10 10:58:08;;;;;;;1.45;0.88;;;14.30;61.50;;;;;;4164064;28;20063;-43
2022/04/10 11:00:19;;;;;;;1.35;0.90;;;14.00;61.10;;;;;;4166635;28;20053;-44